createdAt,value
2022-12-08T00:01:39.877Z,4.68
2022-12-08T00:07:37.005Z,8.85
2022-12-08T00:10:47.890Z,8.10
2022-12-08T00:17:03.501Z,5.18
2022-12-08T00:20:22.115Z,8.80
2022-12-08T00:23:53.081Z,6.35
2022-12-08T00:26:37.411Z,5.53
2022-12-08T00:32:14.169Z,9.82
2022-12-08T00:35:02.269Z,6.88
2022-12-08T00:38:01.446Z,6.35
2022-12-08T00:40:54.338Z,5.00
2022-12-08T00:43:40.600Z,6.35
2022-12-08T00:46:21.213Z,5.38
2022-12-08T00:49:12.150Z,6.47
2022-12-08T00:52:00.513Z,5.80
2022-12-08T00:55:12.086Z,5.05
2022-12-08T00:58:21.345Z,5.88
2022-12-08T01:01:26.968Z,6.63
2022-12-08T01:04:28.781Z,6.22
2022-12-08T01:07:21.505Z,5.93
2022-12-08T01:10:08.632Z,5.45
2022-12-08T01:13:15.577Z,6.20
2022-12-08T01:15:52.073Z,5.60
2022-12-08T01:18:38.010Z,7.30
2022-12-08T01:21:27.589Z,6.05
2022-12-08T01:24:10.011Z,4.63
2022-12-08T01:27:07.818Z,6.22
2022-12-08T01:29:52.423Z,5.25
2022-12-08T01:32:46.838Z,4.70
2022-12-08T01:35:39.419Z,5.53
2022-12-08T01:38:18.409Z,4.57
2022-12-08T01:41:06.590Z,4.03
2022-12-08T01:44:34.602Z,4.35
2022-12-08T01:47:30.923Z,3.13
2022-12-08T01:50:22.328Z,2.38
2022-12-08T01:53:08.817Z,3.22
2022-12-08T01:55:49.001Z,2.90
2022-12-08T01:58:35.409Z,3.35
2022-12-08T02:01:24.255Z,4.25
2022-12-08T02:07:08.494Z,4.72
2022-12-08T02:09:59.794Z,6.43
2022-12-08T02:12:50.193Z,6.68
2022-12-08T02:15:35.918Z,5.55
2022-12-08T02:19:07.983Z,5.57
2022-12-08T02:21:59.755Z,4.50
2022-12-08T02:24:54.112Z,3.95
2022-12-08T02:28:20.975Z,3.10
2022-12-08T02:31:25.166Z,3.53
2022-12-08T02:34:29.111Z,2.90
2022-12-08T02:37:53.497Z,2.50
2022-12-08T02:40:44.016Z,2.95
2022-12-08T02:43:46.717Z,3.05
2022-12-08T02:49:21.423Z,2.92
2022-12-08T02:52:21.829Z,3.05
2022-12-08T02:55:08.770Z,2.78
2022-12-08T02:58:32.658Z,2.42
2022-12-08T03:01:40.603Z,2.80
2022-12-08T03:04:33.756Z,2.28
2022-12-08T03:07:31.084Z,2.47
2022-12-08T03:10:31.254Z,2.60
2022-12-08T03:13:35.346Z,2.45
2022-12-08T03:16:12.995Z,2.50
2022-12-08T03:22:09.751Z,2.20
2022-12-08T03:25:12.439Z,2.45
2022-12-08T03:28:06.946Z,2.30
2022-12-08T03:31:03.124Z,2.40
2022-12-08T03:33:59.917Z,2.88
2022-12-08T03:36:56.550Z,2.65
2022-12-08T03:39:46.714Z,2.42
2022-12-08T03:45:27.924Z,2.00
2022-12-08T03:51:00.466Z,2.22
2022-12-08T03:53:56.493Z,2.38
2022-12-08T03:56:40.786Z,2.20
2022-12-08T03:59:25.879Z,2.38
2022-12-08T04:02:15.238Z,2.28
2022-12-08T04:05:04.936Z,2.55
2022-12-08T04:08:01.580Z,2.00
2022-12-08T04:10:59.333Z,2.33
2022-12-08T04:13:49.366Z,2.53
2022-12-08T04:16:32.720Z,2.13
2022-12-08T04:19:24.790Z,2.15
2022-12-08T04:22:25.919Z,2.30
2022-12-08T04:25:34.705Z,2.50
2022-12-08T04:28:19.160Z,2.65
2022-12-08T04:31:18.829Z,2.45
2022-12-08T04:34:16.650Z,2.58
2022-12-08T04:36:54.258Z,2.28
2022-12-08T04:42:35.775Z,2.30
2022-12-08T04:45:31.550Z,4.43
2022-12-08T04:51:14.763Z,2.30
2022-12-08T04:54:15.222Z,2.33
2022-12-08T04:57:08.968Z,2.33
2022-12-08T05:00:23.024Z,2.47
2022-12-08T05:03:33.164Z,2.25
2022-12-08T05:06:11.218Z,2.33
2022-12-08T05:08:57.062Z,1.80
2022-12-08T05:11:53.403Z,2.05
2022-12-08T05:14:30.421Z,1.98
2022-12-08T05:20:15.945Z,2.38
2022-12-08T05:23:23.969Z,2.00
2022-12-08T05:26:02.763Z,1.65
2022-12-08T05:29:10.697Z,2.17
2022-12-08T05:32:00.116Z,2.05
2022-12-08T05:34:48.314Z,1.90
2022-12-08T05:37:30.550Z,1.70
2022-12-08T05:40:17.993Z,1.85
2022-12-08T05:42:59.970Z,2.00
2022-12-08T05:48:53.823Z,2.53
2022-12-08T05:51:38.172Z,1.80
2022-12-08T05:54:17.488Z,2.05
2022-12-08T05:56:56.358Z,1.83
2022-12-08T05:59:42.257Z,2.00
2022-12-08T06:02:27.338Z,2.67
2022-12-08T06:05:07.244Z,2.88
2022-12-08T06:07:58.974Z,3.20
2022-12-08T06:10:51.221Z,2.10
2022-12-08T06:13:34.048Z,2.42
2022-12-08T06:16:13.006Z,2.33
2022-12-08T06:19:06.785Z,2.28
2022-12-08T06:21:44.446Z,2.00
2022-12-08T06:24:35.441Z,2.03
2022-12-08T06:27:26.814Z,2.28
2022-12-08T06:30:12.122Z,2.65
2022-12-08T06:32:58.867Z,2.83
2022-12-08T06:35:59.233Z,2.42
2022-12-08T06:38:46.761Z,2.25
2022-12-08T06:41:34.947Z,2.55
2022-12-08T06:44:25.734Z,2.50
2022-12-08T06:47:07.418Z,2.72
2022-12-08T06:53:05.450Z,13.57
2022-12-08T06:56:00.068Z,9.35
2022-12-08T06:58:52.070Z,5.43
2022-12-08T07:02:00.395Z,3.85
2022-12-08T07:04:36.601Z,27.00
2022-12-08T07:07:26.852Z,12.07
2022-12-08T07:10:42.387Z,6.70
2022-12-08T07:16:52.678Z,18.00
2022-12-08T07:19:36.953Z,10.88
2022-12-08T07:22:22.071Z,7.97
2022-12-08T07:25:18.675Z,24.38
2022-12-08T07:27:52.920Z,31.67
2022-12-08T07:30:56.322Z,22.30
2022-12-08T07:33:47.672Z,23.58
2022-12-08T07:36:38.866Z,14.30
2022-12-08T07:39:36.621Z,14.73
2022-12-08T07:42:25.393Z,19.33
2022-12-08T07:45:14.876Z,5.38
2022-12-08T07:51:02.849Z,26.75
2022-12-08T07:53:53.369Z,71.85
2022-12-08T07:56:44.412Z,63.00
2022-12-08T08:02:25.601Z,11.80
2022-12-08T08:05:14.603Z,13.20
2022-12-08T08:07:57.975Z,5.20
2022-12-08T08:10:51.422Z,6.22
2022-12-08T08:16:30.061Z,5.65
2022-12-08T08:19:14.892Z,29.58
2022-12-08T08:22:07.014Z,17.98
2022-12-08T08:24:54.162Z,8.80
2022-12-08T08:27:33.788Z,10.32
2022-12-08T08:33:29.291Z,18.55
2022-12-08T08:36:15.627Z,21.52
2022-12-08T08:42:05.617Z,26.75
2022-12-08T08:44:43.191Z,25.38
2022-12-08T08:47:36.521Z,14.55
2022-12-08T08:50:37.687Z,8.55
2022-12-08T08:53:17.143Z,5.07
2022-12-08T08:56:10.311Z,4.38
2022-12-08T09:01:55.791Z,6.32
2022-12-08T09:20:36.776Z,7.60
2022-12-08T09:23:16.095Z,9.38
2022-12-08T09:25:52.131Z,27.08
2022-12-08T09:31:35.166Z,33.80
2022-12-08T09:34:15.325Z,22.63
2022-12-08T09:37:29.247Z,42.42
2022-12-08T09:40:44.999Z,24.00
2022-12-08T09:43:40.537Z,16.95
2022-12-08T09:52:08.521Z,7.78
2022-12-08T09:58:32.297Z,4.22
2022-12-08T10:01:22.932Z,3.50
2022-12-08T10:04:11.156Z,8.18
2022-12-08T10:06:54.355Z,9.18
2022-12-08T10:10:17.226Z,9.45
2022-12-08T10:13:10.332Z,7.78
2022-12-08T10:16:07.214Z,15.02
2022-12-08T10:19:28.896Z,12.65
2022-12-08T10:22:21.018Z,9.68
2022-12-08T10:25:35.277Z,9.07
2022-12-08T10:28:45.095Z,11.93
2022-12-08T10:32:44.408Z,10.48
2022-12-08T10:35:35.057Z,9.38
2022-12-08T10:38:27.453Z,11.20
2022-12-08T10:44:16.147Z,19.35
2022-12-08T10:47:01.471Z,16.63
2022-12-08T10:49:40.844Z,9.70
2022-12-08T10:52:40.913Z,10.40
2022-12-08T10:55:20.923Z,13.57
2022-12-08T11:01:29.428Z,18.67
2022-12-08T11:04:20.485Z,21.05
2022-12-08T11:06:59.287Z,20.23
2022-12-08T11:10:09.416Z,17.65
2022-12-08T11:12:51.600Z,14.38
2022-12-08T11:16:06.893Z,17.15
2022-12-08T11:19:06.810Z,33.17
2022-12-08T11:21:53.036Z,31.67
2022-12-08T11:24:53.419Z,29.52
2022-12-08T11:30:51.144Z,24.35
2022-12-08T11:33:39.610Z,18.15
2022-12-08T11:36:41.129Z,15.70
2022-12-08T11:42:21.131Z,15.73
2022-12-08T11:45:07.139Z,16.35
2022-12-08T11:47:55.911Z,14.35
2022-12-08T11:50:53.638Z,16.20
2022-12-08T11:53:47.822Z,13.85
2022-12-08T11:56:38.195Z,14.80
2022-12-08T11:59:25.856Z,19.60
2022-12-08T12:02:21.125Z,19.30
2022-12-08T12:06:05.848Z,24.35
2022-12-08T12:08:57.628Z,19.58
2022-12-08T12:12:00.976Z,23.63
2022-12-08T12:15:11.748Z,21.30
2022-12-08T12:18:05.713Z,18.42
2022-12-08T12:21:01.354Z,14.93
2022-12-08T12:23:48.727Z,12.25
2022-12-08T12:26:29.325Z,10.90
2022-12-08T12:29:16.217Z,16.60
2022-12-08T12:32:01.316Z,74.03
2022-12-08T12:34:56.592Z,35.80
2022-12-08T12:38:30.840Z,33.35
2022-12-08T12:51:05.565Z,13.23
2022-12-08T12:57:20.621Z,4.95
2022-12-08T13:00:33.679Z,5.13
2022-12-08T13:03:36.497Z,6.30
2022-12-08T13:06:29.439Z,7.47
2022-12-08T13:09:34.351Z,10.05
2022-12-08T13:12:29.272Z,8.98
2022-12-08T13:15:32.312Z,7.47
2022-12-08T13:18:19.197Z,11.13
2022-12-08T13:21:03.301Z,11.18
2022-12-08T13:28:02.144Z,12.90
2022-12-08T13:31:07.323Z,12.35
2022-12-08T13:34:00.985Z,14.88
2022-12-08T13:36:48.610Z,10.18
2022-12-08T13:42:51.879Z,6.28
2022-12-08T13:53:49.432Z,10.73
2022-12-08T13:56:43.398Z,9.98
2022-12-08T13:58:23.006Z,8.18
2022-12-08T14:01:36.951Z,9.30
2022-12-08T14:07:27.381Z,9.35
2022-12-08T14:10:17.927Z,11.70
2022-12-08T14:13:20.385Z,8.93
2022-12-08T14:18:53.098Z,9.55
2022-12-08T14:21:40.626Z,5.40
2022-12-08T14:24:43.616Z,5.85
2022-12-08T14:27:37.283Z,5.30
2022-12-08T14:30:48.461Z,5.88
2022-12-08T14:33:44.358Z,6.57
2022-12-08T14:39:41.675Z,6.03
2022-12-08T14:42:33.933Z,7.85
2022-12-08T14:45:24.972Z,7.43
2022-12-08T14:48:32.979Z,8.95
2022-12-08T14:51:38.612Z,6.63
2022-12-08T14:54:39.505Z,7.95
2022-12-08T14:57:28.320Z,8.43
2022-12-08T15:00:15.006Z,7.45
2022-12-08T15:03:07.851Z,7.10
2022-12-08T15:05:47.843Z,7.03
2022-12-08T15:11:43.564Z,5.97
2022-12-08T15:14:55.105Z,6.15
2022-12-08T15:17:41.321Z,6.97
2022-12-08T15:20:43.475Z,5.43
2022-12-08T15:26:44.409Z,5.45
2022-12-08T15:29:30.247Z,4.95
2022-12-08T15:32:31.262Z,5.60
2022-12-08T15:35:11.378Z,5.30
2022-12-08T15:38:05.389Z,5.70
2022-12-08T15:40:51.681Z,4.43
2022-12-08T15:43:47.507Z,4.97
2022-12-08T15:46:49.538Z,5.00
2022-12-08T15:49:45.300Z,5.00
2022-12-08T15:52:38.903Z,4.93
2022-12-08T15:55:23.250Z,5.05
2022-12-08T15:58:52.536Z,4.90
2022-12-08T16:01:14.568Z,6.57
2022-12-08T16:07:21.003Z,7.55
2022-12-08T16:13:56.326Z,7.13
2022-12-08T16:16:35.222Z,7.40
2022-12-08T16:22:44.837Z,6.95
2022-12-08T16:28:36.925Z,5.78
2022-12-08T16:31:25.240Z,6.07
2022-12-08T16:34:27.432Z,7.03
2022-12-08T16:37:19.498Z,6.50
2022-12-08T16:39:56.626Z,5.22
2022-12-08T16:42:54.431Z,5.72
2022-12-08T16:45:44.597Z,6.20
2022-12-08T16:48:26.729Z,5.68
2022-12-08T16:51:28.986Z,5.78
2022-12-08T16:54:13.043Z,5.38
2022-12-08T16:59:38.053Z,5.75
2022-12-08T17:02:28.100Z,5.22
2022-12-08T17:08:05.353Z,5.18
2022-12-08T17:11:12.047Z,5.57
2022-12-08T17:13:56.288Z,5.70
2022-12-08T17:16:32.673Z,5.50
2022-12-08T17:19:23.665Z,4.95
2022-12-08T17:22:14.545Z,4.85
2022-12-08T17:24:55.432Z,4.40
2022-12-08T17:27:43.399Z,4.10
2022-12-08T17:30:30.638Z,3.67
2022-12-08T17:36:39.771Z,3.83
2022-12-08T17:39:26.020Z,3.90
2022-12-08T17:42:19.887Z,4.22
2022-12-08T17:45:22.523Z,3.72
2022-12-08T17:48:03.891Z,5.57
2022-12-08T17:50:58.903Z,5.15
2022-12-08T17:53:58.623Z,3.22
2022-12-08T17:59:52.080Z,4.65
2022-12-08T18:02:34.432Z,4.70
2022-12-08T18:05:32.503Z,4.95
2022-12-08T18:08:08.242Z,5.07
2022-12-08T18:11:01.813Z,5.70
2022-12-08T18:14:01.491Z,4.75
2022-12-08T18:16:52.939Z,3.70
2022-12-08T18:19:38.461Z,4.30
2022-12-08T18:22:30.893Z,3.97
2022-12-08T18:25:11.673Z,3.88
2022-12-08T18:27:55.915Z,4.40
2022-12-08T18:30:34.604Z,5.15
2022-12-08T18:33:31.450Z,5.95
2022-12-08T18:36:21.058Z,5.97
2022-12-08T18:39:04.575Z,6.00
2022-12-08T18:42:11.572Z,5.80
2022-12-08T18:48:04.895Z,5.90
2022-12-08T18:50:47.991Z,5.40
2022-12-08T18:53:37.723Z,5.43
2022-12-08T18:56:31.100Z,4.63
2022-12-08T18:59:17.781Z,4.90
2022-12-08T19:02:11.601Z,5.22
2022-12-08T19:04:50.293Z,7.13
2022-12-08T19:07:38.408Z,4.82
2022-12-08T19:10:40.036Z,4.40
2022-12-08T19:13:17.671Z,4.47
2022-12-08T19:16:13.367Z,4.18
2022-12-08T19:21:46.992Z,3.72
2022-12-08T19:24:39.671Z,4.10
2022-12-08T19:27:23.661Z,3.40
2022-12-08T19:30:29.480Z,3.40
2022-12-08T19:33:07.879Z,3.42
2022-12-08T19:36:01.428Z,4.07
2022-12-08T19:38:50.269Z,4.03
2022-12-08T19:41:58.681Z,3.80
2022-12-08T19:44:52.006Z,3.50
2022-12-08T19:47:35.107Z,4.07
2022-12-08T19:50:29.158Z,4.50
2022-12-08T19:53:21.752Z,6.15
2022-12-08T19:56:06.658Z,3.90
2022-12-08T19:58:55.466Z,3.40
2022-12-08T20:02:14.147Z,5.28
2022-12-08T20:05:51.364Z,4.47
2022-12-08T20:09:06.625Z,3.55
2022-12-08T20:11:56.787Z,4.35
2022-12-08T20:14:47.760Z,3.90
2022-12-08T20:17:35.544Z,4.03
2022-12-08T20:20:24.852Z,4.60
2022-12-08T20:23:03.605Z,4.30
2022-12-08T20:26:05.588Z,3.10
2022-12-08T20:28:43.333Z,3.92
2022-12-08T20:34:41.328Z,2.58
2022-12-08T20:37:26.347Z,3.25
2022-12-08T20:40:35.608Z,3.72
2022-12-08T20:46:21.524Z,6.80
2022-12-08T20:49:39.310Z,7.28
2022-12-08T20:52:34.450Z,9.55
2022-12-08T20:55:22.512Z,10.63
2022-12-08T20:58:07.049Z,9.80
2022-12-08T21:03:40.986Z,10.90
2022-12-08T21:09:38.825Z,10.40
2022-12-08T21:12:33.464Z,10.07
2022-12-08T21:15:20.470Z,9.50
2022-12-08T21:18:01.508Z,8.63
2022-12-08T21:23:25.823Z,9.48
2022-12-08T21:26:26.440Z,8.57
2022-12-08T21:29:15.528Z,9.57
2022-12-08T21:31:57.312Z,9.30
2022-12-08T21:34:57.668Z,9.45
2022-12-08T21:37:43.844Z,9.05
2022-12-08T21:47:22.102Z,9.02
2022-12-08T21:57:11.497Z,10.68
2022-12-08T22:03:10.361Z,10.45
2022-12-08T22:05:50.233Z,10.82
2022-12-08T22:08:32.280Z,10.70
2022-12-08T22:11:29.350Z,12.00
2022-12-08T22:14:15.495Z,16.02
2022-12-08T22:19:56.952Z,50.13
2022-12-08T22:22:43.889Z,19.58
2022-12-08T22:25:20.728Z,15.93
2022-12-08T22:28:01.628Z,30.88
2022-12-08T22:30:53.781Z,28.40
2022-12-08T22:34:05.336Z,15.80
2022-12-08T22:36:44.243Z,17.55
2022-12-08T22:39:30.753Z,13.60
2022-12-08T22:42:19.451Z,23.10
2022-12-08T22:45:11.899Z,15.25
2022-12-08T22:48:13.214Z,13.38
2022-12-08T22:51:08.762Z,11.75
2022-12-08T22:54:03.896Z,11.60
2022-12-08T22:57:06.239Z,10.88
2022-12-08T23:02:40.060Z,11.45
2022-12-08T23:05:32.988Z,15.55
2022-12-08T23:08:29.606Z,31.58
2022-12-08T23:11:20.306Z,11.70
2022-12-08T23:14:10.716Z,13.40
2022-12-08T23:16:57.378Z,13.27
2022-12-08T23:19:46.872Z,18.38
2022-12-08T23:22:53.930Z,12.43
2022-12-08T23:25:42.164Z,11.13
2022-12-08T23:28:33.920Z,12.45
2022-12-08T23:34:24.910Z,11.70
2022-12-08T23:37:21.386Z,12.57
2022-12-08T23:40:13.077Z,11.27
2022-12-08T23:43:23.415Z,12.05
2022-12-08T23:46:10.416Z,14.68
2022-12-08T23:48:51.448Z,15.32
2022-12-08T23:51:35.835Z,14.10
2022-12-08T23:54:14.573Z,14.40
2022-12-08T23:57:10.221Z,13.73
